WetterOnline ( https://www.wetteronline.de )

Wetter aktuell Artern

Aktuelles Wetter: Artern (166m)

6-stündlich | Neueste Meldungen
Ortszeit Temperatur Wetter
Do, 29.07. 2:00 17.0° C bewölkt
Mi, 28.07. 20:00 22.0° C fast wolkenlos
Mi, 28.07. 14:00 21.2° C wolkig
Mi, 28.07. 8:00 16.8° C wolkenlos
Mi, 28.07. 2:00 18.2° C leichter Regen
Di, 27.07. 20:00 25.1° C bewölkt
Di, 27.07. 14:00 25.1° C leicht bewölkt
Di, 27.07. 8:00 19.0° C fast wolkenlos
Ortszeit Temperatur Wetter
Do, 29.07. 7:10 16.5° C leicht bewölkt
Do, 29.07. 7:00 16.1° C leicht bewölkt
Do, 29.07. 6:50 16.1° C leicht bewölkt
Do, 29.07. 6:40 15.6° C wolkenlos
Do, 29.07. 6:30 15.5° C wolkenlos
Do, 29.07. 6:20 15.5° C wolkenlos
Do, 29.07. 6:00 15.2° C wolkenlos
Do, 29.07. 5:30 15.8° C leicht bewölkt
Do, 29.07. 5:00 16.4° C wolkig
Do, 29.07. 4:30 16.9° C bedeckt
Do, 29.07. 4:00 17.0° C bedeckt
Ortszeit Relative Feuchte Sichtweite
Do, 29.07. 2:00 86% 60 km
Mi, 28.07. 20:00 63% 50 km
Mi, 28.07. 14:00 60% 55 km
Mi, 28.07. 8:00 88% 40 km
Mi, 28.07. 2:00 71% 45 km
Di, 27.07. 20:00 49% 55 km
Di, 27.07. 14:00 47% 45 km
Di, 27.07. 8:00 78% 55 km
Ortszeit Relative Feuchte Sichtweite
Do, 29.07. 7:10 82% -
Do, 29.07. 7:00 85% 60 km
Do, 29.07. 6:50 85% -
Do, 29.07. 6:40 88% -
Do, 29.07. 6:30 88% 55 km
Do, 29.07. 6:20 88% -
Do, 29.07. 6:00 91% 55 km
Do, 29.07. 5:30 88% 50 km
Do, 29.07. 5:00 86% 55 km
Do, 29.07. 4:30 84% 65 km
Do, 29.07. 4:00 85% 60 km
Ortszeit Niederschlagsmenge Niederschlagsart
Do, 29.07. 2:00 0.0 l/m2 in 6 Std. -
Mi, 28.07. 20:00 0.0 l/m2 in 12 Std. -
Mi, 28.07. 14:00 0.0 l/m2 in 6 Std. -
Mi, 28.07. 8:00 2 l/m2 in 12 Std. Regen
Mi, 28.07. 2:00 0.1 l/m2 in 6 Std. Regen
Di, 27.07. 20:00 0.1 l/m2 in 12 Std. -
Di, 27.07. 14:00 0.1 l/m2 in 6 Std. Regen
Di, 27.07. 8:00 0.0 l/m2 in 12 Std. -
Ortszeit Niederschlagsmenge Niederschlagsart
Do, 29.07. 7:10 keine Meldung -
Do, 29.07. 7:00 0.0 l/m2 in 1 Std. -
Do, 29.07. 6:50 keine Meldung -
Do, 29.07. 6:40 keine Meldung -
Do, 29.07. 6:30 0.0 l/m2 in 1 Std. -
Do, 29.07. 6:20 keine Meldung -
Do, 29.07. 6:00 0.0 l/m2 in 1 Std. -
Do, 29.07. 5:30 0.0 l/m2 in 1 Std. -
Do, 29.07. 5:00 0.0 l/m2 in 1 Std. -
Do, 29.07. 4:30 0.0 l/m2 in 1 Std. -
Do, 29.07. 4:00 0.0 l/m2 in 1 Std. -
Ortszeit Stärke Spitze Richtung
km/h Bft. km/h Grad Sektor
Do, 29.07. 2:00 17 3 37 210° SW
Mi, 28.07. 20:00 18 3 40 210° SW
Mi, 28.07. 14:00 20 4 37 220° SW
Mi, 28.07. 8:00 11 2 32 230° SW
Mi, 28.07. 2:00 7 2 25 230° SW
Di, 27.07. 20:00 14 3 40 240° SW
Di, 27.07. 14:00 18 3 36 220° SW
Di, 27.07. 8:00 11 2 18 230° SW
Ortszeit Stärke Spitze Richtung
km/h Bft. km/h Grad Sektor
Do, 29.07. 7:10 13 3 - 220° SW
Do, 29.07. 7:00 7 2 18 230° SW
Do, 29.07. 6:50 7 2 - 230° SW
Do, 29.07. 6:40 7 2 - 220° SW
Do, 29.07. 6:30 9 2 15 210° SW
Do, 29.07. 6:20 9 2 - 210° SW
Do, 29.07. 6:00 9 2 19 210° SW
Do, 29.07. 5:30 9 2 19 220° SW
Do, 29.07. 5:00 13 3 30 220° SW
Do, 29.07. 4:30 14 3 29 220° SW
Do, 29.07. 4:00 15 3 28 220° SW
Ortszeit Untergrenze Bedeckung Gattung
total tief tief mittel hoch
Do, 29.07. 2:00 2400 m 7/8 7/8 - - -
Mi, 28.07. 20:00 3000 m 1/8 1/8 - - -
Mi, 28.07. 14:00 960 m 8/8 1/8 - - -
Mi, 28.07. 8:00 10500 m 0/8 0/8 - - -
Mi, 28.07. 2:00 2400 m 7/8 1/8 - - -
Di, 27.07. 20:00 5700 m 7/8 7/8 - - -
Di, 27.07. 14:00 1380 m 8/8 1/8 - - -
Di, 27.07. 8:00 3000 m 1/8 1/8 - - -
Ortszeit Bedeckungsgrad in Achtel und Wolkenuntergrenze
Do, 29.07. 7:10 2(2700m)
Do, 29.07. 7:00 3(2700m)
Do, 29.07. 6:50 3(2700m)
Do, 29.07. 6:40 keine Wolken
Do, 29.07. 6:30 keine Wolken
Do, 29.07. 6:20 keine Wolken
Do, 29.07. 6:00 keine Wolken
Do, 29.07. 5:30 2(2400m)
Do, 29.07. 5:00 6(2400m)
Do, 29.07. 4:30 8(2400m)
Do, 29.07. 4:00 8(2400m)
Ortszeit Luftdruck NN (hPa) Tendenz (hPa in 3 Std.)
Do, 29.07. 2:00 1012 + 0,4
Mi, 28.07. 20:00 1011 - 0,2
Mi, 28.07. 14:00 1012 - 0,1
Mi, 28.07. 8:00 1012 0,0
Mi, 28.07. 2:00 1012 - 0,5
Di, 27.07. 20:00 1011 - 0,5
Di, 27.07. 14:00 1013 - 0,3
Di, 27.07. 8:00 1013 + 0,9
Ortszeit Luftdruck NN (hPa) Tendenz (hPa in 3 Std.)
Do, 29.07. 7:10 1012 keine Meldung
Do, 29.07. 7:00 1012 + 0,3
Do, 29.07. 6:50 1012 keine Meldung
Do, 29.07. 6:40 1012 keine Meldung
Do, 29.07. 6:30 1012 + 0,3
Do, 29.07. 6:20 1012 keine Meldung
Do, 29.07. 6:00 1012 - 0,1
Do, 29.07. 5:30 1012 - 0,2
Do, 29.07. 5:00 1012 - 0,4
Do, 29.07. 4:30 1012 - 0,7
Do, 29.07. 4:00 1012 - 0,6
Ortszeit Schneehöhe (cm)
Do, 29.07. 2:00 -
Mi, 28.07. 20:00 -
Mi, 28.07. 14:00 -
Mi, 28.07. 8:00 -
Mi, 28.07. 2:00 -
Di, 27.07. 20:00 -
Di, 27.07. 14:00 -
Di, 27.07. 8:00 -
Ortszeit Schneehöhe (cm)
Do, 29.07. 7:10 -
Do, 29.07. 7:00 -
Do, 29.07. 6:50 -
Do, 29.07. 6:40 -
Do, 29.07. 6:30 -
Do, 29.07. 6:20 -
Do, 29.07. 6:00 -
Do, 29.07. 5:30 -
Do, 29.07. 5:00 -
Do, 29.07. 4:30 -
Do, 29.07. 4:00 -
Link zu dieser Seite / Seite empfehlen

Das Wetter in ...